createdAt,value
2022-10-28T00:00:00.077Z,82.03
2022-10-28T00:02:47.198Z,83.48
2022-10-28T00:05:34.752Z,84.06
2022-10-28T00:08:06.416Z,85.76
2022-10-28T00:10:34.262Z,82.63
2022-10-28T00:13:11.887Z,83.55
2022-10-28T00:15:39.890Z,83.33
2022-10-28T00:18:18.522Z,84.42
2022-10-28T00:20:45.321Z,85.21
2022-10-28T00:23:32.244Z,89.84
2022-10-28T00:26:20.610Z,86.75
2022-10-28T00:29:08.956Z,89.22
2022-10-28T00:31:37.648Z,92.17
2022-10-28T00:34:06.046Z,92.34
2022-10-28T00:36:34.958Z,92.28
2022-10-28T00:39:02.592Z,89.36
2022-10-28T00:41:30.947Z,92.16
2022-10-28T00:43:59.095Z,92.62
2022-10-28T00:46:38.753Z,89.96
2022-10-28T00:49:27.732Z,89.88
2022-10-28T00:52:07.300Z,92.25
2022-10-28T00:54:43.587Z,88.17
2022-10-28T00:57:14.054Z,87.12
2022-10-28T00:59:44.422Z,87.73
2022-10-28T01:02:12.118Z,87.94
2022-10-28T01:04:39.652Z,86.34
2022-10-28T01:07:06.946Z,88.34
2022-10-28T01:09:33.894Z,86.02
2022-10-28T01:12:07.121Z,85.72
2022-10-28T01:15:06.411Z,87.99
2022-10-28T01:17:44.975Z,88.66
2022-10-28T01:20:24.091Z,84.26
2022-10-28T01:22:54.219Z,83.81
2022-10-28T01:25:33.914Z,86.39
2022-10-28T01:28:06.794Z,86.82
2022-10-28T01:30:45.496Z,86.88
2022-10-28T01:33:22.534Z,86.23
2022-10-28T01:35:49.973Z,90.55
2022-10-28T01:38:18.224Z,88.47
2022-10-28T01:40:48.499Z,89.57
2022-10-28T01:43:38.569Z,89.52
2022-10-28T01:46:13.450Z,88.26
2022-10-28T01:48:40.237Z,89.01
2022-10-28T01:51:14.966Z,87.84
2022-10-28T01:53:44.590Z,90.53
2022-10-28T01:56:15.823Z,89.98
2022-10-28T01:59:03.886Z,87.86
2022-10-28T02:01:32.026Z,87.55
2022-10-28T02:04:18.845Z,89.14
2022-10-28T02:06:56.538Z,87.97
2022-10-28T02:09:23.804Z,89.55
2022-10-28T02:12:15.990Z,88.39
2022-10-28T02:15:01.675Z,89.39
2022-10-28T02:17:49.903Z,87.44
2022-10-28T02:20:32.521Z,90.43
2022-10-28T02:23:18.387Z,92.11
2022-10-28T02:25:55.162Z,91.99
2022-10-28T02:28:36.638Z,91.20
2022-10-28T02:31:33.098Z,90.02
2022-10-28T02:34:02.007Z,93.38
2022-10-28T02:36:32.564Z,92.74
2022-10-28T02:39:01.477Z,89.37
2022-10-28T02:41:51.313Z,89.00
2022-10-28T02:44:20.926Z,90.89
2022-10-28T02:46:49.263Z,90.35
2022-10-28T02:49:16.264Z,93.45
2022-10-28T02:51:45.874Z,89.47
2022-10-28T02:54:18.119Z,90.01
2022-10-28T02:56:57.660Z,89.25
2022-10-28T02:59:25.483Z,91.23
2022-10-28T03:01:52.381Z,90.22
2022-10-28T03:04:23.132Z,91.75
2022-10-28T03:06:51.371Z,91.19
2022-10-28T03:09:23.120Z,95.00
2022-10-28T03:11:51.961Z,96.72
2022-10-28T03:14:19.911Z,93.75
2022-10-28T03:16:48.063Z,92.25
2022-10-28T03:19:15.843Z,89.93
2022-10-28T03:21:46.583Z,93.88
2022-10-28T03:24:13.951Z,93.81
2022-10-28T03:26:44.922Z,90.01
2022-10-28T03:29:12.420Z,92.00
2022-10-28T03:31:39.195Z,93.76
2022-10-28T03:34:07.321Z,94.55
2022-10-28T03:36:35.032Z,90.97
2022-10-28T03:39:05.521Z,91.96
2022-10-28T03:41:32.657Z,90.20
2022-10-28T03:43:59.555Z,91.45
2022-10-28T03:46:28.282Z,91.06
2022-10-28T03:48:57.310Z,89.54
2022-10-28T03:51:25.943Z,90.08
2022-10-28T03:53:53.432Z,91.46
2022-10-28T03:56:20.232Z,90.99
2022-10-28T04:01:17.714Z,91.23
2022-10-28T04:03:45.130Z,93.51
2022-10-28T04:06:11.971Z,92.33
2022-10-28T04:08:41.822Z,89.94
2022-10-28T04:11:10.673Z,92.48
2022-10-28T04:13:37.442Z,91.50
2022-10-28T04:16:04.342Z,90.74
2022-10-28T04:18:31.147Z,92.17
2022-10-28T04:20:58.090Z,93.04
2022-10-28T04:23:24.892Z,95.61
2022-10-28T04:25:52.381Z,97.95
2022-10-28T04:28:19.264Z,96.76
2022-10-28T04:30:48.831Z,95.35
2022-10-28T04:33:15.652Z,98.90
2022-10-28T04:35:43.501Z,99.10
2022-10-28T04:38:13.007Z,98.07
2022-10-28T04:40:39.821Z,99.38
2022-10-28T04:43:09.658Z,98.29
2022-10-28T04:45:36.964Z,96.58
2022-10-28T04:48:03.822Z,99.39
2022-10-28T04:50:30.660Z,99.83
2022-10-28T04:52:57.311Z,97.43
2022-10-28T04:55:24.011Z,96.17
2022-10-28T04:57:57.691Z,98.49
2022-10-28T05:00:25.584Z,96.46
2022-10-28T05:02:52.406Z,96.32
2022-10-28T05:05:19.425Z,96.15
2022-10-28T05:07:46.442Z,93.15
2022-10-28T05:10:15.692Z,93.00
2022-10-28T05:12:43.223Z,94.93
2022-10-28T05:15:10.487Z,95.18
2022-10-28T05:17:38.741Z,96.61
2022-10-28T05:20:06.293Z,95.00
2022-10-28T05:22:32.941Z,92.52
2022-10-28T05:24:59.644Z,92.97
2022-10-28T05:27:26.315Z,91.50
2022-10-28T05:29:52.988Z,93.72
2022-10-28T05:32:19.651Z,91.90
2022-10-28T05:34:46.342Z,93.89
2022-10-28T05:37:13.051Z,90.47
2022-10-28T05:39:39.702Z,95.17
2022-10-28T05:42:07.282Z,92.61
2022-10-28T05:44:34.040Z,94.26
2022-10-28T05:47:02.522Z,89.29
2022-10-28T05:49:29.263Z,90.74
2022-10-28T05:51:55.970Z,93.94
2022-10-28T05:54:22.731Z,96.37
2022-10-28T05:56:49.434Z,93.57
2022-10-28T05:59:16.202Z,94.12
2022-10-28T06:01:43.061Z,95.43
2022-10-28T06:04:46.831Z,98.91
2022-10-28T06:07:27.863Z,95.54
2022-10-28T06:10:30.471Z,95.77
2022-10-28T06:13:14.087Z,96.27
2022-10-28T06:15:51.230Z,95.20
2022-10-28T06:21:35.527Z,94.91
2022-10-28T06:25:16.369Z,95.14
2022-10-28T06:27:01.374Z,93.00
2022-10-28T06:29:28.211Z,96.91
2022-10-28T06:32:17.556Z,96.23
2022-10-28T06:35:15.091Z,95.76
2022-10-28T06:37:40.097Z,92.00
2022-10-28T06:40:33.130Z,96.51
2022-10-28T06:43:22.534Z,96.70
2022-10-28T06:46:12.656Z,95.61
2022-10-28T06:48:48.332Z,95.74
2022-10-28T06:51:20.057Z,96.44
2022-10-28T06:54:13.646Z,97.30
2022-10-28T06:57:00.148Z,96.15
2022-10-28T06:59:31.811Z,95.26
2022-10-28T07:02:11.178Z,95.27
2022-10-28T07:04:45.563Z,96.02
2022-10-28T07:07:52.172Z,96.17
2022-10-28T07:10:27.408Z,93.93
2022-10-28T07:12:54.781Z,97.76
2022-10-28T07:15:26.094Z,96.33
2022-10-28T07:19:41.257Z,96.28
2022-10-28T07:21:23.709Z,94.73
2022-10-28T07:23:59.041Z,96.75
2022-10-28T07:26:46.140Z,99.03
2022-10-28T07:29:51.358Z,95.94
2022-10-28T07:32:18.096Z,92.91
2022-10-28T07:34:44.896Z,94.74
2022-10-28T07:37:13.126Z,91.75
2022-10-28T07:39:40.089Z,94.21
2022-10-28T07:42:09.977Z,98.82
2022-10-28T07:44:37.005Z,98.88
2022-10-28T07:47:03.939Z,96.11
2022-10-28T07:49:31.117Z,95.74
2022-10-28T07:51:57.955Z,96.37
2022-10-28T07:54:28.844Z,95.27
2022-10-28T07:56:55.875Z,97.66
2022-10-28T07:59:32.658Z,96.75
2022-10-28T08:02:03.286Z,93.68
2022-10-28T08:04:30.720Z,92.95
2022-10-28T08:06:57.753Z,93.11
2022-10-28T08:09:24.843Z,91.25
2022-10-28T08:12:02.826Z,92.66
2022-10-28T08:14:29.671Z,93.60
2022-10-28T08:16:56.639Z,95.44
2022-10-28T08:19:23.565Z,94.52
2022-10-28T08:21:53.376Z,94.33
2022-10-28T08:24:20.351Z,94.87
2022-10-28T08:26:47.202Z,98.85
2022-10-28T08:29:14.196Z,96.34
2022-10-28T08:31:43.651Z,96.84
2022-10-28T08:34:10.643Z,94.91
2022-10-28T08:36:43.103Z,93.62
2022-10-28T08:39:15.321Z,94.69
2022-10-28T08:41:48.101Z,94.83
2022-10-28T08:44:24.154Z,94.58
2022-10-28T08:47:13.314Z,92.82
2022-10-28T08:49:43.431Z,96.98
2022-10-28T08:52:32.255Z,96.90
2022-10-28T08:55:13.046Z,96.37
2022-10-28T08:58:03.316Z,96.82
2022-10-28T09:00:31.927Z,95.10
2022-10-28T09:03:14.366Z,93.11
2022-10-28T09:05:52.776Z,88.97
2022-10-28T09:08:31.008Z,90.82
2022-10-28T09:11:09.226Z,91.47
2022-10-28T09:13:44.358Z,90.32
2022-10-28T09:16:15.269Z,93.53
2022-10-28T09:18:43.134Z,92.47
2022-10-28T09:21:21.035Z,89.15
2022-10-28T09:23:53.540Z,90.01
2022-10-28T09:26:28.088Z,91.01
2022-10-28T09:29:15.098Z,91.58
2022-10-28T09:31:49.806Z,90.43
2022-10-28T09:34:38.316Z,88.30
2022-10-28T09:37:14.251Z,85.63
2022-10-28T09:39:55.619Z,86.20
2022-10-28T09:42:35.864Z,87.42
2022-10-28T09:45:05.506Z,87.61
2022-10-28T09:47:37.967Z,91.99
2022-10-28T09:50:10.720Z,89.62
2022-10-28T09:52:42.669Z,87.75
2022-10-28T09:55:19.208Z,91.24
2022-10-28T09:57:46.163Z,91.54
2022-10-28T10:00:14.131Z,89.20
2022-10-28T10:02:42.967Z,88.25
2022-10-28T10:05:17.788Z,84.27
2022-10-28T10:07:46.457Z,84.61
2022-10-28T10:10:21.278Z,83.12
2022-10-28T10:12:52.295Z,83.51
2022-10-28T10:15:26.098Z,85.90
2022-10-28T10:17:53.558Z,87.06
2022-10-28T10:20:21.355Z,85.86
2022-10-28T10:22:49.439Z,85.28
2022-10-28T10:25:19.402Z,89.96
2022-10-28T10:28:07.209Z,87.83
2022-10-28T10:30:39.106Z,86.51
2022-10-28T10:33:06.379Z,87.53
2022-10-28T10:35:37.752Z,89.36
2022-10-28T10:38:06.539Z,87.63
2022-10-28T10:40:50.220Z,88.45
2022-10-28T10:43:34.338Z,87.27
2022-10-28T10:46:05.872Z,88.37
2022-10-28T10:48:36.628Z,85.60
2022-10-28T10:51:16.611Z,86.28
2022-10-28T10:53:48.549Z,90.78
2022-10-28T10:56:23.829Z,88.72
2022-10-28T10:58:52.599Z,87.83
2022-10-28T11:01:27.846Z,89.79
2022-10-28T11:06:27.032Z,86.99
2022-10-28T11:09:01.560Z,88.15
2022-10-28T11:11:33.209Z,89.43
2022-10-28T11:14:13.657Z,90.32
2022-10-28T11:16:51.717Z,90.31
2022-10-28T11:19:22.383Z,91.48
2022-10-28T11:22:10.022Z,90.86
2022-10-28T11:24:43.228Z,88.66
2022-10-28T11:27:34.698Z,87.14
2022-10-28T11:30:02.116Z,87.20
2022-10-28T11:32:54.767Z,91.02
2022-10-28T11:35:47.881Z,89.11
2022-10-28T11:38:25.741Z,89.06
2022-10-28T11:41:11.340Z,86.62
2022-10-28T11:43:54.604Z,84.18
2022-10-28T11:46:28.042Z,80.98
2022-10-28T11:49:26.013Z,78.42
2022-10-28T11:52:17.220Z,76.80
2022-10-28T11:55:00.439Z,78.40
2022-10-28T11:57:38.656Z,81.17
2022-10-28T12:00:25.537Z,79.94
2022-10-28T12:03:02.185Z,79.95
2022-10-28T12:05:40.599Z,76.67
2022-10-28T12:08:07.610Z,75.09
2022-10-28T12:10:55.647Z,79.57
2022-10-28T12:13:25.626Z,79.79
2022-10-28T12:15:52.523Z,79.62
2022-10-28T12:18:23.936Z,85.18
2022-10-28T12:21:00.368Z,84.66
2022-10-28T12:23:32.848Z,85.19
2022-10-28T12:26:07.439Z,85.46
2022-10-28T12:28:38.120Z,83.13
2022-10-28T12:31:06.359Z,85.33
2022-10-28T12:33:36.455Z,84.10
2022-10-28T12:36:09.288Z,83.77
2022-10-28T12:38:42.649Z,84.75
2022-10-28T12:41:24.239Z,86.20
2022-10-28T12:43:53.568Z,86.30
2022-10-28T12:46:31.170Z,86.91
2022-10-28T12:49:12.519Z,85.32
2022-10-28T12:51:41.313Z,87.08
2022-10-28T12:54:26.968Z,83.55
2022-10-28T12:57:14.165Z,80.57
2022-10-28T12:59:44.458Z,80.01
2022-10-28T13:02:18.769Z,78.73
2022-10-28T13:04:51.379Z,78.14
2022-10-28T13:07:37.020Z,78.05
2022-10-28T13:13:00.554Z,81.51
2022-10-28T13:15:46.160Z,79.24
2022-10-28T13:18:22.855Z,81.31
2022-10-28T13:20:59.003Z,81.08
2022-10-28T13:23:29.228Z,80.83
2022-10-28T13:29:25.348Z,80.90
2022-10-28T13:31:53.975Z,82.22
2022-10-28T13:34:23.299Z,84.90
2022-10-28T13:37:04.318Z,85.27
2022-10-28T13:39:35.524Z,84.51
2022-10-28T13:42:25.298Z,81.24
2022-10-28T13:44:59.526Z,81.58
2022-10-28T13:47:28.794Z,82.14
2022-10-28T13:50:13.000Z,83.24
2022-10-28T13:55:39.867Z,86.09
2022-10-28T13:58:19.946Z,81.37
2022-10-28T14:00:52.089Z,84.87
2022-10-28T14:03:36.901Z,83.21
2022-10-28T14:06:14.776Z,84.45
2022-10-28T14:08:41.894Z,82.36
2022-10-28T14:11:33.109Z,84.55
2022-10-28T14:14:01.099Z,83.16
2022-10-28T14:16:54.394Z,81.84
2022-10-28T14:19:22.386Z,84.86
2022-10-28T14:22:03.452Z,81.07
2022-10-28T14:24:35.055Z,83.12
2022-10-28T14:27:15.707Z,86.88
2022-10-28T14:29:47.476Z,82.70
2022-10-28T14:32:32.819Z,84.50
2022-10-28T14:35:23.096Z,84.10
2022-10-28T14:38:05.266Z,83.69
2022-10-28T14:40:40.686Z,82.79
2022-10-28T14:43:14.393Z,85.15
2022-10-28T14:45:47.856Z,83.70
2022-10-28T14:48:14.692Z,85.80
2022-10-28T14:50:43.934Z,87.75
2022-10-28T14:53:29.412Z,85.47
2022-10-28T14:56:01.539Z,84.54
2022-10-28T14:58:35.771Z,84.15
2022-10-28T15:01:08.454Z,85.25
2022-10-28T15:03:35.822Z,86.96
2022-10-28T15:06:03.464Z,83.07
2022-10-28T15:08:30.303Z,82.51
2022-10-28T15:10:57.166Z,84.32
2022-10-28T15:13:26.202Z,82.75
2022-10-28T15:15:53.904Z,86.18
2022-10-28T15:18:22.864Z,83.85
2022-10-28T15:20:50.353Z,82.88
2022-10-28T15:23:19.454Z,83.87
2022-10-28T15:25:46.454Z,84.77
2022-10-28T15:28:14.065Z,85.42
2022-10-28T15:30:46.104Z,84.87
2022-10-28T15:33:21.301Z,82.55
2022-10-28T15:35:48.452Z,81.38
2022-10-28T15:38:21.301Z,83.81
2022-10-28T15:40:48.343Z,82.32
2022-10-28T15:43:28.378Z,81.30
2022-10-28T15:46:07.764Z,81.68
2022-10-28T15:48:34.473Z,84.63
2022-10-28T15:51:11.572Z,83.92
2022-10-28T15:53:42.140Z,84.05
2022-10-28T15:56:17.126Z,82.45
2022-10-28T15:58:45.391Z,83.65
2022-10-28T16:01:31.493Z,82.99
2022-10-28T16:03:58.402Z,82.38
2022-10-28T16:06:36.447Z,84.15
2022-10-28T16:09:05.542Z,85.84
2022-10-28T16:11:35.970Z,84.39
2022-10-28T16:14:06.552Z,83.42
2022-10-28T16:16:33.351Z,83.33
2022-10-28T16:19:23.760Z,86.34
2022-10-28T16:21:50.663Z,87.77
2022-10-28T16:24:17.453Z,84.68
2022-10-28T16:26:44.322Z,84.31
2022-10-28T16:29:11.192Z,83.38
2022-10-28T16:31:38.212Z,82.53
2022-10-28T16:34:05.033Z,84.45
2022-10-28T16:36:32.592Z,83.87
2022-10-28T16:38:59.520Z,84.69
2022-10-28T16:41:26.265Z,82.98
2022-10-28T16:43:53.330Z,82.92
2022-10-28T16:46:20.166Z,86.47
2022-10-28T16:48:46.863Z,85.01
2022-10-28T16:51:17.810Z,86.73
2022-10-28T16:53:47.494Z,83.05
2022-10-28T16:56:16.032Z,84.58
2022-10-28T16:58:43.521Z,84.21
2022-10-28T17:01:10.762Z,82.91
2022-10-28T17:03:37.619Z,83.92
2022-10-28T17:06:04.373Z,82.26
2022-10-28T17:09:00.830Z,82.46
2022-10-28T17:11:17.913Z,83.42
2022-10-28T17:13:44.742Z,81.78
2022-10-28T17:16:13.189Z,82.89
2022-10-28T17:18:40.467Z,83.07
2022-10-28T17:21:07.204Z,83.63
2022-10-28T17:23:33.878Z,82.72
2022-10-28T17:26:01.626Z,81.42
2022-10-28T17:28:28.562Z,82.93
2022-10-28T17:31:01.733Z,86.63
2022-10-28T17:33:28.413Z,84.65
2022-10-28T17:35:55.112Z,85.82
2022-10-28T17:38:21.912Z,83.33
2022-10-28T17:40:55.271Z,84.55
2022-10-28T17:43:22.662Z,85.26
2022-10-28T17:45:49.422Z,87.53
2022-10-28T17:48:16.161Z,86.59
2022-10-28T17:50:44.392Z,86.52
2022-10-28T17:53:11.451Z,85.02
2022-10-28T17:55:38.304Z,83.75
2022-10-28T17:58:05.029Z,84.65
2022-10-28T18:00:31.765Z,86.48
2022-10-28T18:02:59.319Z,85.96
2022-10-28T18:05:26.092Z,85.03
2022-10-28T18:07:56.168Z,83.52
2022-10-28T18:10:23.081Z,81.97
2022-10-28T18:12:50.838Z,82.26
2022-10-28T18:15:17.555Z,81.04
2022-10-28T18:17:44.279Z,79.47
2022-10-28T18:20:11.211Z,78.94
2022-10-28T18:22:37.942Z,77.92
2022-10-28T18:25:04.792Z,77.38
2022-10-28T18:27:32.041Z,76.73
2022-10-28T18:29:58.851Z,76.72
2022-10-28T18:32:25.733Z,76.22
2022-10-28T18:34:52.596Z,75.51
2022-10-28T18:37:19.456Z,75.07
2022-10-28T18:39:46.383Z,75.50
2022-10-28T18:42:14.786Z,79.53
2022-10-28T18:44:43.583Z,78.56
2022-10-28T18:47:10.445Z,78.17
2022-10-28T18:49:37.349Z,78.33
2022-10-28T18:52:04.252Z,76.52
2022-10-28T18:54:31.132Z,76.43
2022-10-28T18:56:58.027Z,77.96
2022-10-28T18:59:24.950Z,76.72
2022-10-28T19:01:52.302Z,78.86
2022-10-28T19:04:19.173Z,79.68
2022-10-28T19:06:46.942Z,82.71
2022-10-28T19:09:13.752Z,83.58
2022-10-28T19:11:40.536Z,83.74
2022-10-28T19:14:08.648Z,83.85
2022-10-28T19:16:35.722Z,82.38
2022-10-28T19:19:03.974Z,82.61
2022-10-28T19:21:30.819Z,81.10
2022-10-28T19:23:57.875Z,79.13
2022-10-28T19:26:24.733Z,78.68
2022-10-28T19:28:51.813Z,80.60
2022-10-28T19:31:19.953Z,80.83
2022-10-28T19:33:47.163Z,82.77
2022-10-28T19:36:14.664Z,82.10
2022-10-28T19:38:41.572Z,80.01
2022-10-28T19:41:10.012Z,81.42
2022-10-28T19:43:36.914Z,80.12
2022-10-28T19:46:04.573Z,78.78
2022-10-28T19:48:31.363Z,81.44
2022-10-28T19:50:58.091Z,80.07
2022-10-28T19:53:24.793Z,78.41
2022-10-28T19:55:55.474Z,80.90
2022-10-28T19:58:22.262Z,81.99
2022-10-28T20:00:48.992Z,81.80
2022-10-28T20:03:15.724Z,83.22
2022-10-28T20:05:42.474Z,82.77
2022-10-28T20:08:09.145Z,82.73
2022-10-28T20:10:35.854Z,80.92
2022-10-28T20:13:02.583Z,80.12
2022-10-28T20:15:29.436Z,79.61
2022-10-28T20:17:56.192Z,78.44
2022-10-28T20:20:22.874Z,77.81
2022-10-28T20:22:49.572Z,77.81
2022-10-28T20:25:16.224Z,77.70
2022-10-28T20:27:42.942Z,78.57
2022-10-28T20:30:09.964Z,77.20
2022-10-28T20:32:36.772Z,77.56
2022-10-28T20:35:03.613Z,78.42
2022-10-28T20:37:30.352Z,76.61
2022-10-28T20:39:58.354Z,80.28
2022-10-28T20:42:26.403Z,82.71
2022-10-28T20:44:53.116Z,79.31
2022-10-28T20:47:19.846Z,79.52
2022-10-28T20:49:46.535Z,82.23
2022-10-28T20:52:16.819Z,81.38
2022-10-28T20:54:43.912Z,79.86
2022-10-28T20:57:10.697Z,79.48
2022-10-28T20:59:37.506Z,78.78
2022-10-28T21:02:04.342Z,78.58
2022-10-28T21:04:31.173Z,77.85
2022-10-28T21:06:57.845Z,77.37
2022-10-28T21:09:24.532Z,76.66
2022-10-28T21:11:51.245Z,76.13
2022-10-28T21:14:17.891Z,76.17
2022-10-28T21:16:44.562Z,75.75
2022-10-28T21:19:11.217Z,75.58
2022-10-28T21:21:38.246Z,77.04
2022-10-28T21:24:05.215Z,76.66
2022-10-28T21:26:31.945Z,76.97
2022-10-28T21:28:58.639Z,76.85
2022-10-28T21:31:25.445Z,76.22
2022-10-28T21:33:52.336Z,76.24
2022-10-28T21:36:20.099Z,76.28
2022-10-28T21:38:46.932Z,75.77
2022-10-28T21:41:17.881Z,75.41
2022-10-28T21:43:47.944Z,75.13
2022-10-28T21:46:14.773Z,75.19
2022-10-28T21:48:41.542Z,76.15
2022-10-28T21:51:13.532Z,74.78
2022-10-28T21:53:41.944Z,74.80
2022-10-28T21:56:17.162Z,74.59
2022-10-28T21:58:45.532Z,74.18
2022-10-28T22:01:13.800Z,74.50
2022-10-28T22:03:40.598Z,76.03
2022-10-28T22:06:07.703Z,74.92
2022-10-28T22:08:34.545Z,74.26
2022-10-28T22:11:05.704Z,74.85
2022-10-28T22:13:32.772Z,78.17
2022-10-28T22:16:00.376Z,79.04
2022-10-28T22:18:28.014Z,76.27
2022-10-28T22:20:55.112Z,75.51
2022-10-28T22:23:21.802Z,74.93
2022-10-28T22:25:48.683Z,74.24
2022-10-28T22:28:15.362Z,73.99
2022-10-28T22:30:42.063Z,73.26
2022-10-28T22:33:08.744Z,73.47
2022-10-28T22:35:35.473Z,72.81
2022-10-28T22:38:02.193Z,72.78
2022-10-28T22:40:29.682Z,72.58
2022-10-28T22:42:56.392Z,73.35
2022-10-28T22:45:23.082Z,78.86
2022-10-28T22:47:50.515Z,75.92
2022-10-28T22:50:17.221Z,75.50
2022-10-28T22:52:43.879Z,78.11
2022-10-28T22:55:10.595Z,80.27
2022-10-28T22:57:37.243Z,78.66
2022-10-28T23:00:04.249Z,79.33
2022-10-28T23:02:31.146Z,78.06
2022-10-28T23:04:57.841Z,79.17
2022-10-28T23:07:24.594Z,82.28
2022-10-28T23:09:51.265Z,84.47
2022-10-28T23:12:17.943Z,82.94
2022-10-28T23:14:44.644Z,80.53
2022-10-28T23:17:11.310Z,80.32
2022-10-28T23:19:38.011Z,82.30
2022-10-28T23:22:04.651Z,80.71
2022-10-28T23:24:31.324Z,83.50
2022-10-28T23:29:29.560Z,86.15
2022-10-28T23:31:56.302Z,84.25
2022-10-28T23:34:22.961Z,83.97
2022-10-28T23:36:54.232Z,83.91
2022-10-28T23:39:21.641Z,83.78
2022-10-28T23:41:48.431Z,83.44
2022-10-28T23:44:15.351Z,83.14
2022-10-28T23:46:42.092Z,84.88
2022-10-28T23:49:08.832Z,81.87
2022-10-28T23:51:35.481Z,84.09
2022-10-28T23:54:02.169Z,87.86
2022-10-28T23:56:28.857Z,85.20
2022-10-28T23:58:55.523Z,84.92
